메인 페이지
METAR-TAF:

METAR-TAF

공항 :

쿠리치바, 파라나, 브라질

위도: 25-26S, 경도: 049-16W, 고도: 924m

현재 날씨관측

예보는 1 시간 12분 전, 22:00시(UTC)에 발표되었습니다.
북동5kt
온도 19°C
습도 100%
기압 1019 hPa
시정: 3500m
고도 300ft 상공 구름 많음
고도 4000ft 상공 구름 보통
약한비,

METAR: SBBI 142200Z 04005KT 3500 -RA BKN003 SCT040 19/19 Q1019 RERA

시각: 20:12 (23:12 UTC)

예보

예보는 8 시간 12분 전, 15:00시(UTC)에 발표되었습니다.
예보 대상 시간: 14일 18시부터 15일 06시까지 (UTC)
동북동6kt
시정: 5000m
고도 500ft 상공 구름 많음
약한비, 박무
전환 중
15일 03시부터 15일 04시까지 (UTC)
시정: 4000m
고도 400ft 상공 구름 많음
약한비, 박무

TAF: SBBI 141500Z 1418/1506 07006KT 5000 -RA BR BKN005 TX20/1418Z TN17/1504Z BECMG 1503/1504 4000 -RA BR BKN004 RMK PEC

4,000개 이상의 공항 관측 자료 및 예보 (METAR 및 TAF 보고).

지도상에서 검색 가능한 기상관측소가 노란 점과 빨간 점으로 표시되어 있습니다.

기상관측소 명을 보려면 표시 위로 마우스를 이동하세요.

날씨 관측과 예보를 보려면 클릭하세요.

지도 변경 : 확대하려면 엑스 표시가 있는 녹색 버튼, 축소하려면 빼기 표시가 있는 녹색 버튼, 다음 페이지의 지도를 보려면 녹색 화살표를 클릭하세요.


METAR-TAF: